Time;durP1;ratioP1;P1;durP2;ratioP2;P2;SDS_P1;SDS_P2;PMS_P1;PMS_P2;Temp;Humidity;BMP_temperature;BMP_pressure;BME280_temperature;BME280_humidity;BME280_pressure;Samples;Min_cycle;Max_cycle;Signal;HPM_P1;HPM_P2
2021/12/15 00:02:09;;;;;;;28.53;13.50;;;;;;;2.28;90.40;101272.45;126293;1099;104165;-82
2021/12/15 00:04:43;;;;;;;27.93;12.77;;;;;;;2.28;91.11;101282.81;126323;1099;104159;-82
2021/12/15 00:07:20;;;;;;;29.30;12.90;;;;;;;2.29;91.50;101290.70;126314;1099;104286;-83
2021/12/15 00:09:54;;;;;;;30.73;13.60;;;;;;;2.29;90.92;101285.52;126333;1099;104233;-81
2021/12/15 00:12:29;;;;;;;27.27;13.20;;;;;;;2.28;91.49;101288.88;126324;1099;104146;-83
2021/12/15 00:15:08;;;;;;;28.27;13.53;;;;;;;2.29;91.12;101294.95;126135;1099;104165;-82
2021/12/15 00:17:43;;;;;;;28.33;14.00;;;;;;;2.28;91.28;101306.12;126441;1096;104153;-82
2021/12/15 00:20:18;;;;;;;28.17;13.10;;;;;;;2.31;91.37;101303.78;126332;1099;104188;-82
2021/12/15 00:22:56;;;;;;;28.10;14.10;;;;;;;2.32;91.08;101310.75;126435;1099;104143;-83
2021/12/15 00:25:42;;;;;;;26.10;12.90;;;;;;;2.34;90.61;101317.88;126400;1097;104175;-82
2021/12/15 00:28:17;;;;;;;30.30;13.67;;;;;;;2.36;90.98;101320.59;126237;1096;104195;-80
2021/12/15 00:30:52;;;;;;;28.53;13.10;;;;;;;2.37;91.25;101305.94;126363;1099;104245;-81
2021/12/15 00:33:28;;;;;;;27.93;12.33;;;;;;;2.38;90.48;101318.13;126341;1099;104134;-81
2021/12/15 00:36:02;;;;;;;31.10;13.53;;;;;;;2.37;91.05;101311.13;126300;1099;104172;-82
2021/12/15 00:38:39;;;;;;;31.87;13.80;;;;;;;2.38;90.19;101311.25;126397;1099;104182;-82
2021/12/15 00:41:13;;;;;;;28.47;13.33;;;;;;;2.39;90.75;101310.48;126235;1098;104232;-83
2021/12/15 00:43:50;;;;;;;25.77;12.67;;;;;;;2.41;90.53;101323.55;126421;1099;104166;-83
2021/12/15 00:46:23;;;;;;;30.77;13.63;;;;;;;2.41;90.99;101314.09;126253;1099;104229;-83
2021/12/15 00:48:58;;;;;;;29.93;13.37;;;;;;;2.43;90.51;101321.98;126355;1099;104602;-82
2021/12/15 00:51:31;;;;;;;29.60;13.00;;;;;;;2.42;90.54;101322.78;126390;1099;104625;-82
2021/12/15 00:54:06;;;;;;;27.30;13.47;;;;;;;2.41;90.59;101308.91;126286;1097;104319;-81
2021/12/15 00:56:40;;;;;;;27.63;12.53;;;;;;;2.42;90.87;101309.83;126308;1099;104147;-83
2021/12/15 00:59:14;;;;;;;28.53;12.70;;;;;;;2.42;90.91;101315.02;126326;1099;104166;-83
2021/12/15 01:01:47;;;;;;;29.15;13.55;;;;;;;2.41;91.09;101314.09;126373;1099;104184;-83
2021/12/15 01:04:22;;;;;;;25.80;12.63;;;;;;;2.40;91.07;101308.78;126333;1099;104242;-82
2021/12/15 01:06:58;;;;;;;28.23;13.07;;;;;;;2.40;91.13;101304.53;126348;1099;104149;-82
2021/12/15 01:09:34;;;;;;;26.87;12.40;;;;;;;2.40;90.63;101299.34;126396;1097;104149;-83
2021/12/15 01:12:17;;;;;;;28.77;12.60;;;;;;;2.39;90.71;101304.41;126314;1099;104184;-83
2021/12/15 01:20:40;;;;;;;29.00;13.97;;;;;;;2.37;90.57;101304.28;126270;1099;104281;-83
2021/12/15 01:23:16;;;;;;;28.45;12.80;;;;;;;2.37;90.40;101300.77;126324;1099;102950;-82
2021/12/15 01:25:56;;;;;;;27.97;12.33;;;;;;;2.39;90.88;101296.63;126272;1099;104278;-81
2021/12/15 01:28:30;;;;;;;31.80;13.93;;;;;;;2.38;90.33;101302.58;126364;1099;104140;-82
2021/12/15 01:31:06;;;;;;;33.17;15.10;;;;;;;2.37;90.06;101299.09;126352;1099;104200;-82
2021/12/15 01:33:48;;;;;;;29.87;13.43;;;;;;;2.37;90.43;101300.77;126262;1099;104197;-82
2021/12/15 01:36:27;;;;;;;29.10;13.20;;;;;;;2.37;89.93;101292.98;126248;1098;104216;-81
2021/12/15 01:39:00;;;;;;;26.77;12.63;;;;;;;2.37;90.45;101291.33;126330;1099;104184;-82
2021/12/15 01:41:34;;;;;;;27.83;13.33;;;;;;;2.37;90.07;101290.40;126393;1099;104146;-82
2021/12/15 01:47:11;;;;;;;32.67;13.37;;;;;;;2.36;90.11;101292.09;126250;1099;104197;-82
2021/12/15 01:49:48;;;;;;;31.37;13.43;;;;;;;2.38;90.40;101297.41;126380;1098;104549;-82
2021/12/15 01:52:24;;;;;;;28.37;12.90;;;;;;;2.38;90.28;101298.30;126303;1099;104200;-83
2021/12/15 01:55:17;;;;;;;26.40;12.67;;;;;;;2.37;90.56;101300.77;126310;1099;104220;-82
2021/12/15 01:57:54;;;;;;;24.97;11.97;;;;;;;2.38;90.30;101302.58;126263;1098;104335;-83
2021/12/15 02:00:31;;;;;;;30.53;12.97;;;;;;;2.38;90.38;101295.70;126306;1099;104255;-83
2021/12/15 02:03:05;;;;;;;27.07;12.27;;;;;;;2.40;90.07;101285.47;126375;1099;104179;-82
2021/12/15 02:05:38;;;;;;;26.45;12.43;;;;;;;2.38;90.73;101295.70;126332;1099;104143;-81
2021/12/15 02:08:13;;;;;;;26.43;12.57;;;;;;;2.40;89.69;101286.40;126321;1099;104150;-82
2021/12/15 02:10:46;;;;;;;27.10;11.43;;;;;;;2.39;90.57;101278.50;126333;1099;104275;-82
2021/12/15 02:13:20;;;;;;;28.77;12.47;;;;;;;2.40;90.06;101281.22;126346;1098;104172;-83
2021/12/15 02:15:57;;;;;;;26.90;11.47;;;;;;;2.40;89.75;101280.28;126343;1099;104576;-84
2021/12/15 02:18:33;;;;;;;27.63;12.83;;;;;;;2.41;90.38;101275.23;126294;1099;104271;-83
2021/12/15 02:24:00;;;;;;;26.87;12.00;;;;;;;2.40;89.96;101275.11;126294;1099;104764;-83
2021/12/15 02:26:44;;;;;;;24.00;11.10;;;;;;;2.38;90.11;101287.05;126269;1099;104832;-82
2021/12/15 02:29:21;;;;;;;27.10;11.70;;;;;;;2.37;89.94;101298.17;126263;1099;104204;-82
2021/12/15 02:32:04;;;;;;;27.27;12.07;;;;;;;2.37;90.12;101286.15;126255;1099;104254;-80
2021/12/15 02:37:39;;;;;;;25.77;11.70;;;;;;;2.37;90.02;101286.15;125259;1102;104142;-82
2021/12/15 02:40:18;;;;;;;25.77;12.00;;;;;;;2.37;90.34;101280.97;125294;1102;104172;-82
2021/12/15 02:42:52;;;;;;;29.03;12.53;;;;;;;2.38;90.14;101292.22;125257;1102;104170;-82
2021/12/15 02:45:26;;;;;;;28.15;11.97;;;;;;;2.39;90.41;101286.27;125093;1102;104650;-83
2021/12/15 02:47:58;;;;;;;;;;;;;;;2.41;90.03;101284.70;125258;1102;104207;-83
2021/12/15 02:50:34;;;;;;;27.20;12.57;;;;;;;2.41;89.80;101285.59;125338;1102;104200;-81
2021/12/15 02:53:08;;;;;;;26.67;12.27;;;;;;;2.41;90.23;101289.88;125339;1102;104313;-81
2021/12/15 02:55:43;;;;;;;28.42;12.45;;;;;;;2.40;89.78;101294.16;125305;1102;104956;-83
2021/12/15 02:58:21;;;;;;;26.70;11.77;;;;;;;2.40;89.94;101285.47;125232;1102;104037;-82
2021/12/15 03:01:01;;;;;;;26.03;12.93;;;;;;;2.39;89.39;101289.75;125358;1102;104287;-82
2021/12/15 03:04:09;;;;;;;27.53;12.17;;;;;;;2.38;89.87;101282.75;125314;1100;104280;-83
2021/12/15 03:06:50;;;;;;;25.53;11.97;;;;;;;2.39;90.17;101288.86;125251;1102;104337;-82
2021/12/15 03:15:19;;;;;;;25.33;11.60;;;;;;;2.39;90.10;101286.27;125298;1099;104284;-82
2021/12/15 03:15:40;;;;;;;26.37;11.97;;;;;;;2.39;89.47;101271.63;126292;1099;104156;-82
2021/12/15 03:18:23;;;;;;;23.00;10.33;;;;;;;2.39;89.01;101289.75;126205;1099;104142;-82
2021/12/15 03:20:59;;;;;;;25.17;10.57;;;;;;;2.37;89.74;101283.55;126330;1098;103971;-81
2021/12/15 03:23:51;;;;;;;25.67;11.07;;;;;;;2.37;89.34;101285.22;126387;1097;104207;-81
2021/12/15 03:26:32;;;;;;;24.87;10.73;;;;;;;2.35;89.62;101295.45;126371;1099;104216;-81
2021/12/15 03:35:18;;;;;;;26.23;11.53;;;;;;;2.34;89.89;101291.08;126282;1099;104927;-83
2021/12/15 03:37:56;;;;;;;24.90;10.77;;;;;;;2.33;89.84;101302.20;126358;1099;104153;-82
2021/12/15 03:40:38;;;;;;;25.90;10.87;;;;;;;2.34;90.03;101307.52;126321;1099;104230;-82
2021/12/15 03:43:13;;;;;;;24.67;10.20;;;;;;;2.34;89.80;101306.62;126340;1099;104149;-81
2021/12/15 03:45:48;;;;;;;24.47;10.90;;;;;;;2.33;89.20;101297.92;126329;1099;104271;-82
2021/12/15 03:48:22;;;;;;;25.63;11.33;;;;;;;2.32;89.13;101301.31;126317;1099;104146;-82
2021/12/15 03:50:58;;;;;;;25.30;10.00;;;;;;;2.32;88.84;101308.16;126359;1098;104251;-81
2021/12/15 03:53:30;;;;;;;24.20;10.73;;;;;;;2.30;89.61;101310.62;126330;1099;104226;-82
2021/12/15 03:56:03;;;;;;;25.47;11.33;;;;;;;2.29;89.54;101302.72;126338;1099;104248;-83
2021/12/15 03:58:34;;;;;;;27.45;11.85;;;;;;;2.28;88.87;101306.12;126368;1099;104200;-82
2021/12/15 04:01:12;;;;;;;29.43;12.33;;;;;;;2.28;89.73;101306.12;126235;1099;104226;-83
2021/12/15 04:03:46;;;;;;;27.73;12.83;;;;;;;2.29;89.72;101314.02;126286;1099;104134;-82
2021/12/15 04:06:22;;;;;;;28.70;12.43;;;;;;;2.29;89.77;101302.72;126366;1099;104168;-83
2021/12/15 04:08:55;;;;;;;27.43;13.13;;;;;;;2.29;89.89;101308.83;126366;1099;104146;-83
2021/12/15 04:11:33;;;;;;;30.83;15.90;;;;;;;2.28;89.20;101313.89;126304;1097;104595;-82
2021/12/15 04:14:11;;;;;;;29.50;13.87;;;;;;;2.29;89.41;101318.27;126289;1099;104140;-82
2021/12/15 04:16:46;;;;;;;32.73;15.10;;;;;;;2.29;89.28;101321.78;126379;1099;104146;-81
2021/12/15 04:19:20;;;;;;;39.87;17.60;;;;;;;2.30;89.22;101320.98;126331;1098;104156;-81
2021/12/15 04:21:51;;;;;;;34.80;15.85;;;;;;;2.29;89.54;101316.60;126338;1099;104143;-82
2021/12/15 04:24:25;;;;;;;31.90;13.10;;;;;;;2.30;88.69;101320.09;126357;1099;104146;-82
2021/12/15 04:26:56;;;;;;;;;;;;;;;2.29;88.94;101319.19;126252;1099;104179;-83
2021/12/15 04:29:29;;;;;;;32.60;14.27;;;;;;;2.27;89.43;101317.25;126291;1099;104262;-82
2021/12/15 04:32:07;;;;;;;25.93;11.37;;;;;;;2.27;89.73;101320.73;126317;1099;104848;-84
2021/12/15 04:34:39;;;;;;;28.87;12.03;;;;;;;2.27;89.21;101333.68;126359;1099;104141;-82
2021/12/15 04:37:15;;;;;;;29.43;10.93;;;;;;;2.27;88.81;101331.09;126248;1098;104296;-82
2021/12/15 04:39:48;;;;;;;32.03;14.23;;;;;;;2.25;88.98;101337.84;126320;1099;104242;-83
2021/12/15 04:42:25;;;;;;;32.23;13.33;;;;;;;2.26;89.14;101338.73;126300;1099;104200;-83
2021/12/15 04:44:58;;;;;;;31.97;13.30;;;;;;;2.25;88.89;101329.17;126221;1099;104248;-82
2021/12/15 04:47:31;;;;;;;32.23;11.97;;;;;;;2.24;89.46;101324.77;126350;1099;104371;-82
2021/12/15 04:50:05;;;;;;;31.10;13.35;;;;;;;2.23;89.04;101334.23;126263;1099;104198;-82
2021/12/15 04:52:47;;;;;;;33.23;14.58;;;;;;;2.24;89.46;101332.53;126263;1096;107106;-83
2021/12/15 04:55:25;;;;;;;35.43;14.13;;;;;;;2.25;89.23;101331.77;126234;1099;104204;-81
2021/12/15 04:58:00;;;;;;;30.33;13.17;;;;;;;2.25;89.33;101330.06;126203;1098;104249;-80
2021/12/15 05:00:36;;;;;;;24.73;10.40;;;;;;;2.25;89.32;101340.42;126157;1099;104152;-81
2021/12/15 05:03:08;;;;;;;31.63;13.03;;;;;;;2.25;89.53;101343.02;126160;1099;104144;-81
2021/12/15 05:05:41;;;;;;;25.20;11.00;;;;;;;2.27;89.42;101336.27;126147;1099;104240;-81
2021/12/15 05:08:13;;;;;;;28.73;10.20;;;;;;;2.28;89.39;101339.78;126022;1099;104156;-80
2021/12/15 05:10:44;;;;;;;28.13;10.73;;;;;;;2.29;89.65;101326.03;126204;1099;104169;-82
2021/12/15 05:13:16;;;;;;;25.30;9.90;;;;;;;2.30;88.82;101326.16;126383;1099;104149;-82
2021/12/15 05:15:48;;;;;;;21.90;9.07;;;;;;;2.30;88.79;101333.03;126325;1099;104175;-82
2021/12/15 05:18:20;;;;;;;23.70;9.70;;;;;;;2.29;89.37;101324.38;126229;1099;104181;-79
2021/12/15 05:20:53;;;;;;;26.20;10.03;;;;;;;2.30;89.23;101330.45;126239;1099;104329;-81
2021/12/15 05:23:29;;;;;;;23.47;9.70;;;;;;;2.27;88.73;101328.50;126020;1099;104181;-81
2021/12/15 05:26:01;;;;;;;23.40;9.90;;;;;;;2.26;88.60;101321.53;126103;1099;104287;-82
2021/12/15 05:28:33;;;;;;;24.23;9.53;;;;;;;2.25;88.26;101324.89;126051;1099;104172;-80
2021/12/15 05:31:05;;;;;;;24.10;10.40;;;;;;;2.26;89.09;101323.19;126017;1099;104160;-81
2021/12/15 05:33:36;;;;;;;25.77;9.60;;;;;;;2.27;89.05;101330.20;126113;1099;104325;-81
2021/12/15 05:36:10;;;;;;;26.47;10.50;;;;;;;2.28;89.60;101329.42;126175;1099;102027;-81
2021/12/15 05:38:49;;;;;;;27.63;11.17;;;;;;;2.29;89.03;101333.80;126206;1099;104226;-79
2021/12/15 05:41:21;;;;;;;25.77;11.97;;;;;;;2.28;88.51;101339.78;125997;1099;105757;-81
2021/12/15 05:43:54;;;;;;;25.80;10.63;;;;;;;2.29;88.58;101339.91;126133;1099;104219;-80
2021/12/15 05:46:27;;;;;;;24.60;10.20;;;;;;;2.28;88.59;101324.25;126155;1099;104165;-81
2021/12/15 05:49:02;;;;;;;24.77;10.27;;;;;;;2.27;88.58;101332.78;126035;1099;104176;-81
2021/12/15 05:51:36;;;;;;;29.20;10.60;;;;;;;2.27;87.87;101331.09;126136;1099;104140;-81
2021/12/15 05:54:10;;;;;;;26.20;11.23;;;;;;;2.28;88.45;101337.20;126031;1099;105286;-81
2021/12/15 05:56:48;;;;;;;28.93;11.53;;;;;;;2.26;88.51;101333.55;126170;1098;104268;-82
2021/12/15 05:59:26;;;;;;;28.20;11.50;;;;;;;2.26;88.34;101328.37;126054;1099;104633;-81
2021/12/15 06:02:02;;;;;;;26.60;11.63;;;;;;;2.26;88.39;101342.25;125871;1099;105583;-81
2021/12/15 06:04:37;;;;;;;26.93;11.30;;;;;;;2.28;88.71;101343.27;126015;1097;104143;-80
2021/12/15 06:07:11;;;;;;;28.53;10.93;;;;;;;2.29;88.77;101346.75;125994;1099;104312;-80
2021/12/15 06:09:43;;;;;;;25.97;9.43;;;;;;;2.28;88.71;101353.62;125908;1098;104140;-80
2021/12/15 06:12:16;;;;;;;27.73;11.60;;;;;;;2.27;88.58;101349.22;126033;1099;103974;-81
2021/12/15 06:14:51;;;;;;;30.30;11.93;;;;;;;2.28;87.84;101347.55;125952;1099;104169;-81
2021/12/15 06:17:25;;;;;;;26.77;10.73;;;;;;;2.27;88.33;101354.39;125963;1098;104160;-79
2021/12/15 06:19:59;;;;;;;26.23;11.53;;;;;;;2.25;88.29;101358.55;126028;1099;104245;-79
2021/12/15 06:22:33;;;;;;;33.15;13.32;;;;;;;2.27;88.96;101361.27;125959;1099;104303;-80
2021/12/15 06:25:06;;;;;;;27.57;11.43;;;;;;;2.27;88.40;101362.16;126018;1099;104140;-80
2021/12/15 06:27:41;;;;;;;26.77;10.80;;;;;;;2.30;88.74;101361.52;126064;1099;104229;-80
2021/12/15 06:30:19;;;;;;;24.90;10.67;;;;;;;2.31;88.66;101368.53;125916;1098;104200;-81
2021/12/15 06:32:52;;;;;;;28.53;10.80;;;;;;;2.30;88.12;101379.66;125910;1099;104287;-82
2021/12/15 06:35:29;;;;;;;25.95;11.35;;;;;;;2.30;88.21;101372.78;125934;1099;104235;-80
2021/12/15 06:38:05;;;;;;;27.70;9.97;;;;;;;2.31;88.18;101378.89;125975;1099;104176;-81
2021/12/15 06:40:39;;;;;;;26.90;10.83;;;;;;;2.31;88.39;101389.25;125880;1099;104274;-81
2021/12/15 06:43:15;;;;;;;27.00;12.13;;;;;;;2.33;88.12;101391.16;125835;1099;104351;-80
2021/12/15 07:00:33;;;;;;;23.37;10.10;;;;;;;2.38;87.79;101396.73;125796;1099;104166;-82
2021/12/15 07:03:10;;;;;;;26.57;10.77;;;;;;;2.38;87.62;101404.50;125676;1099;104303;-82
2021/12/15 07:05:50;;;;;;;24.63;10.88;;;;;;;2.39;87.13;101395.06;125694;1099;104274;-82
2021/12/15 07:08:32;;;;;;;26.43;11.40;;;;;;;2.41;87.62;101404.75;126522;1099;104251;-80
2021/12/15 07:11:11;;;;;;;28.23;10.73;;;;;;;2.42;87.97;101406.58;125772;1098;104233;-80
2021/12/15 07:13:48;;;;;;;27.90;10.90;;;;;;;2.41;87.51;101411.62;125725;1099;104316;-79
2021/12/15 07:16:24;;;;;;;28.03;11.33;;;;;;;2.41;87.43;101409.94;125982;1099;104221;-81
2021/12/15 07:19:16;;;;;;;29.20;12.37;;;;;;;2.40;87.33;101412.40;125938;1099;104219;-80
2021/12/15 07:22:16;;;;;;;24.17;10.20;;;;;;;2.36;86.27;101408.66;125933;1099;104197;-80
2021/12/15 07:24:56;;;;;;;27.70;10.73;;;;;;;2.36;87.06;101416.43;126050;1099;104255;-81
2021/12/15 07:27:30;;;;;;;30.63;12.17;;;;;;;2.37;87.69;101405.30;125927;1099;104303;-81
2021/12/15 07:30:06;;;;;;;29.50;12.23;;;;;;;2.39;87.41;101419.27;126087;1098;104306;-80
2021/12/15 07:32:39;;;;;;;27.57;12.60;;;;;;;2.41;87.45;101425.48;126072;1099;104040;-78
2021/12/15 07:35:15;;;;;;;26.90;10.83;;;;;;;2.40;87.17;101438.30;125880;1099;104236;-79
2021/12/15 07:37:53;;;;;;;28.93;11.20;;;;;;;2.40;87.52;101427.94;126077;1099;104271;-81
2021/12/15 07:40:31;;;;;;;28.60;11.90;;;;;;;2.39;87.32;101423.56;126027;1099;104203;-81
2021/12/15 07:43:24;;;;;;;25.50;10.83;;;;;;;2.36;87.28;101423.30;126088;1099;104325;-85
2021/12/15 07:46:10;;;;;;;27.90;12.07;;;;;;;2.36;87.24;101415.53;126059;1099;104174;-80
2021/12/15 07:48:52;;;;;;;26.75;10.00;;;;;;;2.36;87.26;101423.30;126026;1099;105392;-81
2021/12/15 07:51:34;;;;;;;27.30;11.00;;;;;;;2.36;87.36;101431.08;126035;1099;104277;-80
2021/12/15 07:54:08;;;;;;;26.03;10.90;;;;;;;2.34;86.56;101425.77;125859;1099;104233;-81
2021/12/15 07:56:53;;;;;;;27.50;11.60;;;;;;;2.34;87.19;101434.43;125758;1099;104153;-80
2021/12/15 07:59:28;;;;;;;28.05;12.03;;;;;;;2.33;86.87;101435.20;125859;1098;104312;-81
2021/12/15 08:05:31;;;;;;;30.43;13.37;;;;;;;2.36;86.80;101431.08;125842;1099;104198;-82
2021/12/15 08:08:11;;;;;;;29.87;11.60;;;;;;;2.37;86.72;101430.27;125858;1099;104255;-81
2021/12/15 08:10:56;;;;;;;29.73;12.20;;;;;;;2.37;87.24;101436.38;125999;1099;104253;-81
2021/12/15 08:13:45;;;;;;;28.03;12.60;;;;;;;2.36;86.69;101442.33;126105;1099;104598;-79
2021/12/15 08:16:49;;;;;;;28.83;12.40;;;;;;;2.37;86.82;101438.05;126079;1099;110589;-78
2021/12/15 08:19:29;;;;;;;32.10;13.50;;;;;;;2.36;87.21;101439.73;126174;1099;104153;-80
2021/12/15 08:22:18;;;;;;;31.67;12.33;;;;;;;2.38;87.36;101437.28;126105;1099;104274;-80
2021/12/15 08:25:00;;;;;;;31.10;11.77;;;;;;;2.39;87.24;101434.81;125920;1099;104143;-80
2021/12/15 08:27:39;;;;;;;29.50;12.20;;;;;;;2.39;86.72;101434.81;125939;1099;104214;-79
2021/12/15 08:30:24;;;;;;;34.03;13.60;;;;;;;2.39;86.65;101439.10;125853;1099;104191;-78
2021/12/15 08:32:59;;;;;;;31.33;14.10;;;;;;;2.40;87.06;101435.71;125806;1099;104159;-81
2021/12/15 08:35:47;;;;;;;31.43;13.17;;;;;;;2.40;86.82;101438.30;125825;1099;104204;-80
2021/12/15 08:38:46;;;;;;;35.60;14.70;;;;;;;2.38;86.56;101442.46;125995;1099;104583;-79
2021/12/15 08:41:24;;;;;;;29.60;12.93;;;;;;;2.42;86.86;101440.25;125825;1099;104239;-81
2021/12/15 08:44:06;;;;;;;31.83;14.27;;;;;;;2.45;86.87;101437.92;125719;1100;102747;-80
2021/12/15 08:46:58;;;;;;;32.47;14.80;;;;;;;2.44;87.11;101433.50;125851;1099;104172;-80
2021/12/15 08:49:53;;;;;;;29.50;12.87;;;;;;;2.47;86.93;101440.64;125756;1099;104335;-78
2021/12/15 08:52:48;;;;;;;32.07;12.97;;;;;;;2.46;87.08;101424.20;125766;1099;102879;-80
2021/12/15 08:55:48;;;;;;;30.40;13.47;;;;;;;2.45;86.42;101421.48;125513;1099;104296;-79
2021/12/15 08:58:26;;;;;;;30.13;12.73;;;;;;;2.42;86.51;101422.12;126075;1099;104149;-80
2021/12/15 09:01:00;;;;;;;29.77;11.93;;;;;;;2.38;86.33;101420.05;126088;1098;104188;-80
2021/12/15 09:03:35;;;;;;;29.63;12.23;;;;;;;2.35;86.28;101419.78;126005;1099;104265;-79
2021/12/15 09:06:08;;;;;;;29.17;12.60;;;;;;;2.35;87.06;101419.78;125871;1099;104239;-81
2021/12/15 09:08:42;;;;;;;32.57;13.00;;;;;;;2.37;87.03;101420.84;125997;1099;104182;-81
2021/12/15 09:11:19;;;;;;;30.52;11.83;;;;;;;2.37;86.21;101413.07;126119;1097;104143;-79
2021/12/15 09:13:59;;;;;;;30.53;13.67;;;;;;;2.33;86.99;101424.84;125883;1099;104169;-80
2021/12/15 09:16:38;;;;;;;28.70;12.07;;;;;;;2.31;86.36;101431.58;126065;1099;104380;-79
2021/12/15 09:19:14;;;;;;;29.37;12.53;;;;;;;2.32;87.01;101429.89;125946;1099;104303;-80
2021/12/15 09:21:55;;;;;;;30.67;13.37;;;;;;;2.33;86.78;101416.17;125795;1099;104156;-79
2021/12/15 09:24:31;;;;;;;30.70;13.38;;;;;;;2.35;86.36;101417.20;125941;1099;104169;-79
2021/12/15 09:27:12;;;;;;;33.15;13.85;;;;;;;2.39;86.99;101423.56;126033;1099;104213;-79
2021/12/15 09:29:57;;;;;;;30.83;13.17;;;;;;;2.39;86.99;101421.86;126096;1099;104306;-80
2021/12/15 09:32:32;;;;;;;30.30;12.83;;;;;;;2.38;86.11;101424.33;126032;1099;104226;-78
2021/12/15 09:35:10;;;;;;;30.60;12.77;;;;;;;2.38;86.91;101427.81;126062;1099;104309;-78
2021/12/15 09:37:43;;;;;;;29.30;12.90;;;;;;;2.37;86.63;101414.73;125967;1099;104149;-80
2021/12/15 09:40:31;;;;;;;29.03;11.80;;;;;;;2.33;86.35;101419.66;126060;1099;104142;-81
2021/12/15 09:43:06;;;;;;;35.87;16.07;;;;;;;2.36;86.57;101420.72;125979;1099;104293;-80
2021/12/15 09:45:49;;;;;;;28.77;11.33;;;;;;;2.34;85.96;101420.59;125813;1099;104256;-81
2021/12/15 10:03:32;;;;;;;29.10;13.13;;;;;;;2.29;86.43;101412.43;125127;1099;104185;-81
2021/12/15 10:06:24;;;;;;;32.27;13.17;;;;;;;2.32;86.32;101414.34;125253;1099;104156;-80
2021/12/15 10:18:05;;;;;;;27.05;11.35;;;;;;;2.17;86.27;101382.92;125096;1102;104136;-81
2021/12/15 10:20:39;;;;;;;27.23;11.87;;;;;;;2.25;86.30;101399.09;125176;1099;104689;-80
2021/12/15 10:23:22;;;;;;;29.07;14.17;;;;;;;2.22;85.81;101394.55;125456;1099;104168;-80
2021/12/15 10:26:08;;;;;;;31.57;12.90;;;;;;;2.21;86.66;101386.66;125695;1099;104147;-83
2021/12/15 10:28:48;;;;;;;28.63;12.00;;;;;;;2.25;86.72;101378.38;125691;1099;104274;-82
2021/12/15 10:31:46;;;;;;;25.33;11.30;;;;;;;2.24;86.04;101381.73;125677;1099;104556;-83
2021/12/15 10:34:39;;;;;;;24.97;10.93;;;;;;;2.22;85.86;101375.53;125713;1099;104172;-82
2021/12/15 10:37:28;;;;;;;26.20;11.57;;;;;;;2.18;85.73;101384.71;125968;1099;104140;-82
2021/12/15 10:40:21;;;;;;;27.43;11.37;;;;;;;2.15;86.17;101380.20;125711;1098;118943;-81
2021/12/15 10:43:05;;;;;;;28.97;13.00;;;;;;;2.18;85.97;101384.71;125904;1099;104159;-82
2021/12/15 10:45:46;;;;;;;27.70;11.63;;;;;;;2.20;86.18;101384.84;125989;1099;104223;-83
2021/12/15 10:48:36;;;;;;;26.93;10.57;;;;;;;2.20;85.75;101387.42;125921;1099;104274;-81
2021/12/15 10:51:39;;;;;;;27.03;11.17;;;;;;;2.13;85.47;101386.91;125901;1099;104281;-80
2021/12/15 10:54:21;;;;;;;27.63;10.90;;;;;;;2.11;85.55;101383.30;125834;1098;104172;-81
2021/12/15 10:56:57;;;;;;;26.80;10.50;;;;;;;2.09;85.55;101371.03;125814;1098;102362;-80
2021/12/15 10:59:35;;;;;;;24.37;10.07;;;;;;;2.08;84.89;101385.63;125844;1099;102223;-80
2021/12/15 11:02:17;;;;;;;22.70;10.10;;;;;;;2.09;85.29;101383.97;125740;1099;102260;-78
2021/12/15 11:04:55;;;;;;;27.57;11.27;;;;;;;2.06;85.30;101375.95;126477;1099;102405;-79
2021/12/15 11:07:34;;;;;;;26.90;11.23;;;;;;;2.08;85.19;101371.80;125757;1099;104178;-81
2021/12/15 11:10:31;;;;;;;24.50;10.27;;;;;;;2.09;85.02;101377.09;125638;1099;104286;-83
2021/12/15 11:13:33;;;;;;;21.90;9.03;;;;;;;2.01;85.17;101380.73;125627;1099;102520;-81
2021/12/15 11:16:26;;;;;;;23.23;9.20;;;;;;;2.06;84.47;101365.59;125673;1099;104304;-81
2021/12/15 11:19:00;;;;;;;26.03;11.93;;;;;;;2.08;85.56;101364.92;125593;1099;103168;-81
2021/12/15 11:21:41;;;;;;;28.77;12.93;;;;;;;2.07;84.82;101382.91;125634;1099;104236;-81
2021/12/15 11:24:22;;;;;;;32.23;12.67;;;;;;;2.03;85.59;101379.17;125556;1097;104206;-80
2021/12/15 11:27:18;;;;;;;38.30;15.70;;;;;;;1.97;85.50;101369.20;125649;1099;104248;-81
2021/12/15 11:29:51;;;;;;;30.50;13.58;;;;;;;1.93;85.02;101373.98;125623;1099;104393;-79
2021/12/15 11:32:44;;;;;;;37.70;15.70;;;;;;;1.89;85.67;101371.94;125697;1099;104174;-81
2021/12/15 11:35:26;;;;;;;36.80;16.17;;;;;;;1.85;85.77;101368.16;125733;1099;104303;-81
2021/12/15 11:38:05;;;;;;;35.73;15.30;;;;;;;1.85;86.17;101377.62;125740;1099;104236;-79
2021/12/15 11:44:45;;;;;;;33.63;14.47;;;;;;;1.72;86.24;101366.23;124900;1099;104248;-78
2021/12/15 11:47:27;;;;;;;33.83;13.53;;;;;;;1.65;86.04;101379.41;125014;1102;104332;-78
2021/12/15 11:50:13;;;;;;;37.53;16.05;;;;;;;1.62;85.68;101371.38;124999;1099;104417;-79
2021/12/15 11:52:51;;;;;;;34.53;14.37;;;;;;;1.64;85.92;101385.38;124993;1099;104434;-78
2021/12/15 11:55:28;;;;;;;33.67;14.97;;;;;;;1.61;86.55;101383.42;125112;1099;104246;-77
2021/12/15 11:58:02;;;;;;;33.53;15.17;;;;;;;1.59;86.29;101381.47;125072;1099;104261;-78
2021/12/15 12:00:35;;;;;;;34.40;14.43;;;;;;;1.55;86.12;101382.00;125000;1102;104210;-78
2021/12/15 12:03:16;;;;;;;31.45;14.50;;;;;;;1.52;86.31;101381.73;125052;1099;104165;-79
2021/12/15 12:05:52;;;;;;;33.00;14.83;;;;;;;1.49;86.63;101374.61;125046;1099;104271;-80
2021/12/15 12:08:29;;;;;;;33.17;13.73;;;;;;;1.49;86.99;101378.89;125195;1099;104217;-79
2021/12/15 12:11:15;;;;;;;28.80;12.33;;;;;;;1.48;86.30;101388.34;125011;1099;104274;-79
2021/12/15 12:13:58;;;;;;;31.63;13.63;;;;;;;1.46;87.01;101394.14;125110;1099;104434;-80
2021/12/15 12:16:49;;;;;;;30.37;14.23;;;;;;;1.47;86.87;101391.69;125069;1099;104225;-81
2021/12/15 12:19:25;;;;;;;32.53;12.27;;;;;;;1.45;87.22;101401.00;125527;1099;104233;-80
2021/12/15 12:22:05;;;;;;;27.50;11.00;;;;;;;1.40;86.74;101405.78;125945;1099;104198;-79
2021/12/15 12:24:49;;;;;;;33.97;12.90;;;;;;;1.37;87.00;101395.17;125821;1099;101778;-81
2021/12/15 12:27:24;;;;;;;30.13;12.50;;;;;;;1.39;86.71;101398.78;126024;1099;104675;-81
2021/12/15 12:29:59;;;;;;;29.87;11.83;;;;;;;1.40;86.74;101395.44;125858;1099;103022;-78
2021/12/15 12:32:34;;;;;;;29.17;11.73;;;;;;;1.44;86.64;101407.84;125700;1099;107121;-80
2021/12/15 12:35:10;;;;;;;29.10;11.63;;;;;;;1.46;86.54;101405.38;125816;1096;104226;-78
2021/12/15 12:37:45;;;;;;;27.60;11.83;;;;;;;1.47;86.73;101407.20;125827;1097;104146;-80
2021/12/15 12:40:23;;;;;;;28.83;11.50;;;;;;;1.49;86.75;101395.30;125812;1099;104210;-80
2021/12/15 12:43:04;;;;;;;25.63;10.67;;;;;;;1.55;86.59;101405.28;125826;1099;118920;-80
2021/12/15 12:48:40;;;;;;;28.43;10.93;;;;;;;1.59;86.53;101391.81;125869;1099;104160;-79
2021/12/15 12:59:22;;;;;;;26.10;10.37;;;;;;;1.61;86.36;101401.53;125890;1099;104130;-80
2021/12/15 13:01:04;;;;;;;24.40;10.73;;;;;;;1.61;86.35;101400.64;125876;1099;104227;-81
2021/12/15 13:03:44;;;;;;;25.43;10.20;;;;;;;1.57;85.73;101406.31;125915;1099;104679;-79
2021/12/15 13:06:21;;;;;;;25.13;9.93;;;;;;;1.54;86.01;101406.05;125990;1099;102228;-81
2021/12/15 13:09:10;;;;;;;24.90;10.67;;;;;;;1.54;85.78;101411.22;125871;1097;104321;-79
2021/12/15 13:11:47;;;;;;;27.33;10.30;;;;;;;1.51;85.78;101401.53;125826;1099;104175;-80
2021/12/15 13:14:38;;;;;;;22.53;9.93;;;;;;;1.44;85.66;101401.77;125885;1099;104255;-81